Time;durP1;ratioP1;P1;durP2;ratioP2;P2;SDS_P1;SDS_P2;PMS_P1;PMS_P2;Temp;Humidity;BMP_temperature;BMP_pressure;BME280_temperature;BME280_humidity;BME280_pressure;Samples;Min_cycle;Max_cycle;Signal;HPM_P1;HPM_P2
2023/10/08 00:01:17;;;;;;;23.77;7.05;;;;;;;;;;5083730;28;20053;-61
2023/10/08 00:03:57;;;;;;;23.35;6.38;;;;;;;;;;5081992;28;20098;-60
2023/10/08 00:06:26;;;;;;;23.65;6.65;;;;;;;;;;5061787;28;20578;-60
2023/10/08 00:08:59;;;;;;;20.83;5.53;;;;;;;;;;5062902;28;20057;-61
2023/10/08 00:11:29;;;;;;;23.02;6.35;;;;;;;;;;5062991;28;20517;-60
2023/10/08 00:13:56;;;;;;;16.50;6.32;;;;;;;;;;5071600;28;20517;-61
2023/10/08 00:16:23;;;;;;;21.05;5.50;;;;;;;;;;5082350;28;20566;-60
2023/10/08 00:18:50;;;;;;;20.35;6.20;;;;;;;;;;5095753;28;20060;-60
2023/10/08 00:21:19;;;;;;;20.08;5.93;;;;;;;;;;5097308;28;20419;-60
2023/10/08 00:23:52;;;;;;;23.85;6.55;;;;;;;;;;5095892;28;20056;-60
2023/10/08 00:26:27;;;;;;;16.48;6.10;;;;;;;;;;5082572;28;20438;-61
2023/10/08 00:28:55;;;;;;;21.20;6.53;;;;;;;;;;5082802;28;20635;-61
2023/10/08 00:31:30;;;;;;;20.95;6.72;;;;;;;;;;5101677;27;20540;-61
2023/10/08 00:33:57;;;;;;;27.13;6.90;;;;;;;;;;5065676;28;20173;-60
2023/10/08 00:36:23;;;;;;;30.83;6.70;;;;;;;;;;5078635;28;20681;-61
2023/10/08 00:38:52;;;;;;;17.33;6.65;;;;;;;;;;5081928;28;20056;-60
2023/10/08 00:41:28;;;;;;;21.58;6.47;;;;;;;;;;5086048;28;20564;-61
2023/10/08 00:43:59;;;;;;;18.73;5.45;;;;;;;;;;5078980;28;20491;-60
2023/10/08 00:46:47;;;;;;;16.98;5.40;;;;;;;;;;5068282;28;20431;-60
2023/10/08 00:52:00;;;;;;;19.95;5.35;;;;;;;;;;5084236;28;20053;-60
2023/10/08 00:54:32;;;;;;;20.52;5.75;;;;;;;;;;5073731;28;20166;-60
2023/10/08 00:57:03;;;;;;;21.88;5.53;;;;;;;;;;5071228;28;20052;-60
2023/10/08 00:59:37;;;;;;;24.50;6.45;;;;;;;;;;5085164;28;20139;-58
2023/10/08 01:02:06;;;;;;;29.33;6.55;;;;;;;;;;5084318;28;20467;-60
2023/10/08 01:04:37;;;;;;;32.30;7.55;;;;;;;;;;5073780;28;20292;-60
2023/10/08 01:07:15;;;;;;;21.50;6.63;;;;;;;;;;5082086;28;20049;-61
2023/10/08 01:09:43;;;;;;;20.60;6.55;;;;;;;;;;5084297;28;20056;-61
2023/10/08 01:12:21;;;;;;;19.85;6.10;;;;;;;;;;5085072;28;20064;-61
2023/10/08 01:14:49;;;;;;;21.73;5.47;;;;;;;;;;5084575;28;20516;-60
2023/10/08 01:17:16;;;;;;;20.67;7.00;;;;;;;;;;5084172;28;20040;-60
2023/10/08 01:19:45;;;;;;;25.13;7.45;;;;;;;;;;5084326;28;20463;-61
2023/10/08 01:22:17;;;;;;;24.05;6.80;;;;;;;;;;5079209;28;20049;-60
2023/10/08 01:24:47;;;;;;;20.75;6.13;;;;;;;;;;5072685;28;20503;-61
2023/10/08 01:27:24;;;;;;;19.60;6.00;;;;;;;;;;5081237;28;20056;-61
2023/10/08 01:29:51;;;;;;;19.25;6.28;;;;;;;;;;5079165;28;20126;-60
2023/10/08 01:32:19;;;;;;;18.20;6.63;;;;;;;;;;5081995;28;20064;-61
2023/10/08 01:34:46;;;;;;;21.55;6.35;;;;;;;;;;5083997;28;20102;-60
2023/10/08 01:37:17;;;;;;;18.30;6.03;;;;;;;;;;5068126;28;20515;-60
2023/10/08 01:39:45;;;;;;;25.27;6.57;;;;;;;;;;5084064;28;20103;-60
2023/10/08 01:42:17;;;;;;;16.30;5.32;;;;;;;;;;5083405;28;20055;-60
2023/10/08 01:44:46;;;;;;;17.55;5.55;;;;;;;;;;5084002;28;20056;-60
2023/10/08 01:47:14;;;;;;;27.70;7.15;;;;;;;;;;5084495;28;20060;-61
2023/10/08 01:49:42;;;;;;;27.05;6.30;;;;;;;;;;5082515;28;20052;-60
2023/10/08 01:52:13;;;;;;;21.08;6.07;;;;;;;;;;5082935;28;20060;-60
2023/10/08 01:54:40;;;;;;;19.52;5.80;;;;;;;;;;5083219;28;20068;-60
2023/10/08 01:57:09;;;;;;;21.67;6.38;;;;;;;;;;5100831;28;20044;-60
2023/10/08 01:59:37;;;;;;;20.98;7.03;;;;;;;;;;5083648;28;20540;-60
2023/10/08 02:02:05;;;;;;;18.60;6.47;;;;;;;;;;5085492;28;20049;-60
2023/10/08 02:04:35;;;;;;;22.65;7.43;;;;;;;;;;5083710;28;20110;-60
2023/10/08 02:07:03;;;;;;;27.38;6.97;;;;;;;;;;5083955;28;20052;-61
2023/10/08 02:09:33;;;;;;;20.33;7.18;;;;;;;;;;5083145;28;20589;-61
2023/10/08 02:11:59;;;;;;;27.73;7.35;;;;;;;;;;5084615;28;20587;-60
2023/10/08 02:14:30;;;;;;;17.52;5.93;;;;;;;;;;5082288;28;20088;-59
2023/10/08 02:17:01;;;;;;;23.67;7.25;;;;;;;;;;5084966;28;20044;-60
2023/10/08 02:19:28;;;;;;;25.58;8.27;;;;;;;;;;5082541;28;20566;-60
2023/10/08 02:21:55;;;;;;;23.52;6.75;;;;;;;;;;5083080;28;20065;-60
2023/10/08 02:24:24;;;;;;;24.23;7.00;;;;;;;;;;5072092;28;20107;-61
2023/10/08 02:26:54;;;;;;;27.30;7.75;;;;;;;;;;5075248;28;20056;-60
2023/10/08 02:29:29;;;;;;;23.98;7.60;;;;;;;;;;5082524;28;20059;-60
2023/10/08 02:31:56;;;;;;;25.92;7.80;;;;;;;;;;5070612;28;20049;-60
2023/10/08 02:34:23;;;;;;;18.92;6.80;;;;;;;;;;5074219;28;20103;-60
2023/10/08 02:36:49;;;;;;;18.98;7.90;;;;;;;;;;5076416;28;20144;-61
2023/10/08 02:39:21;;;;;;;18.90;8.25;;;;;;;;;;5082418;28;20059;-60
2023/10/08 02:41:48;;;;;;;20.88;7.57;;;;;;;;;;5063177;28;20053;-60
2023/10/08 02:44:16;;;;;;;32.88;8.50;;;;;;;;;;5076037;28;20048;-60
2023/10/08 02:46:47;;;;;;;21.98;6.43;;;;;;;;;;5082142;28;20052;-61
2023/10/08 02:49:19;;;;;;;16.90;6.78;;;;;;;;;;5074942;28;20099;-61
2023/10/08 02:51:46;;;;;;;18.77;7.22;;;;;;;;;;5079356;28;20420;-60
2023/10/08 02:54:16;;;;;;;18.95;7.05;;;;;;;;;;5090566;28;20434;-60
2023/10/08 02:56:51;;;;;;;24.88;7.90;;;;;;;;;;5083020;28;20145;-61
2023/10/08 02:59:22;;;;;;;16.33;7.57;;;;;;;;;;5081836;28;20256;-60
2023/10/08 03:01:49;;;;;;;20.80;8.73;;;;;;;;;;5083680;28;20057;-60
2023/10/08 03:04:18;;;;;;;21.65;7.15;;;;;;;;;;5075389;28;20049;-61
2023/10/08 03:06:54;;;;;;;16.40;7.22;;;;;;;;;;5080282;28;20056;-61
2023/10/08 03:09:24;;;;;;;23.17;7.53;;;;;;;;;;5079431;28;20049;-60
2023/10/08 03:11:52;;;;;;;24.38;8.05;;;;;;;;;;5085797;28;20060;-61
2023/10/08 03:14:22;;;;;;;19.85;7.78;;;;;;;;;;5084726;28;20585;-60
2023/10/08 03:16:49;;;;;;;23.92;8.15;;;;;;;;;;5085562;28;20052;-61
2023/10/08 03:19:19;;;;;;;21.88;7.80;;;;;;;;;;5085301;28;20087;-61
2023/10/08 03:21:51;;;;;;;18.20;7.40;;;;;;;;;;5085669;28;20080;-58
2023/10/08 03:24:29;;;;;;;24.95;8.02;;;;;;;;;;5084102;28;20052;-60
2023/10/08 03:27:05;;;;;;;20.10;7.90;;;;;;;;;;5084374;28;20048;-61
2023/10/08 03:29:41;;;;;;;20.10;8.25;;;;;;;;;;5083915;28;20061;-60
2023/10/08 03:32:18;;;;;;;16.50;6.93;;;;;;;;;;5084901;28;20505;-61
2023/10/08 03:34:46;;;;;;;17.77;7.65;;;;;;;;;;5081999;28;20133;-61
2023/10/08 03:37:19;;;;;;;25.40;9.63;;;;;;;;;;5083176;28;20052;-61
2023/10/08 03:42:43;;;;;;;22.15;8.50;;;;;;;;;;5072708;28;20052;-60
2023/10/08 03:45:10;;;;;;;21.42;8.10;;;;;;;;;;5082587;28;20092;-60
2023/10/08 03:47:38;;;;;;;23.05;9.32;;;;;;;;;;5072505;28;20053;-61
2023/10/08 03:50:05;;;;;;;29.13;9.05;;;;;;;;;;5082386;28;20139;-60
2023/10/08 03:52:36;;;;;;;21.08;6.85;;;;;;;;;;5082536;28;20056;-60
2023/10/08 03:55:06;;;;;;;18.30;6.57;;;;;;;;;;5081960;28;20524;-61
2023/10/08 03:57:42;;;;;;;14.85;5.65;;;;;;;;;;5096001;28;20052;-61
2023/10/08 04:00:18;;;;;;;21.83;5.80;;;;;;;;;;5082690;27;20122;-60
2023/10/08 04:03:07;;;;;;;9.63;5.20;;;;;;;;;;5081905;28;20048;-60
2023/10/08 04:05:59;;;;;;;16.67;5.38;;;;;;;;;;5081583;28;20058;-60
2023/10/08 04:08:58;;;;;;;14.48;4.75;;;;;;;;;;5066503;28;20053;-60
2023/10/08 04:11:35;;;;;;;19.73;4.97;;;;;;;;;;5062355;28;20144;-60
2023/10/08 04:14:02;;;;;;;17.73;4.22;;;;;;;;;;5071790;28;20557;-60
2023/10/08 04:16:29;;;;;;;10.80;3.28;;;;;;;;;;5082856;28;20333;-60
2023/10/08 04:18:56;;;;;;;7.13;3.80;;;;;;;;;;5079305;28;20053;-60
2023/10/08 04:21:27;;;;;;;10.07;3.33;;;;;;;;;;5062135;28;20132;-60
2023/10/08 04:23:57;;;;;;;8.80;3.63;;;;;;;;;;5064934;28;20131;-60
2023/10/08 04:26:23;;;;;;;9.98;3.38;;;;;;;;;;5080507;28;20060;-60
2023/10/08 04:28:54;;;;;;;8.77;3.05;;;;;;;;;;5080472;28;20056;-60
2023/10/08 04:31:24;;;;;;;12.88;3.83;;;;;;;;;;5081512;28;20106;-60
2023/10/08 04:33:52;;;;;;;11.32;4.40;;;;;;;;;;5080271;28;20416;-60
2023/10/08 04:36:19;;;;;;;11.52;4.03;;;;;;;;;;5081181;28;20078;-59
2023/10/08 04:38:50;;;;;;;9.23;4.32;;;;;;;;;;5074409;28;20751;-61
2023/10/08 04:41:19;;;;;;;14.57;3.75;;;;;;;;;;5071659;28;20052;-61
2023/10/08 04:43:49;;;;;;;8.32;3.47;;;;;;;;;;5076829;28;20319;-60
2023/10/08 04:46:39;;;;;;;12.60;4.30;;;;;;;;;;5075365;28;20053;-60
2023/10/08 04:49:09;;;;;;;9.45;3.55;;;;;;;;;;5077362;28;20135;-60
2023/10/08 04:51:43;;;;;;;11.35;3.75;;;;;;;;;;5062411;28;20134;-60
2023/10/08 04:54:16;;;;;;;9.32;3.88;;;;;;;;;;5069361;28;20053;-60
2023/10/08 04:56:43;;;;;;;17.05;4.40;;;;;;;;;;5080546;28;20059;-60
2023/10/08 04:59:13;;;;;;;8.73;3.45;;;;;;;;;;5073763;28;20144;-60
2023/10/08 05:02:02;;;;;;;12.10;3.72;;;;;;;;;;5078194;28;20053;-60
2023/10/08 05:04:47;;;;;;;13.38;4.20;;;;;;;;;;5081781;28;20084;-60
2023/10/08 05:12:50;;;;;;;14.88;4.38;;;;;;;;;;5081411;28;20049;-60
2023/10/08 05:20:29;;;;;;;15.40;4.45;;;;;;;;;;5075181;28;20064;-60
2023/10/08 05:23:05;;;;;;;14.85;3.42;;;;;;;;;;5083153;28;20048;-60
2023/10/08 05:25:40;;;;;;;19.95;4.57;;;;;;;;;;5084779;28;20096;-60
2023/10/08 05:28:11;;;;;;;15.30;4.28;;;;;;;;;;5083065;28;20053;-60
2023/10/08 05:30:38;;;;;;;16.83;4.53;;;;;;;;;;5073406;28;20126;-61
2023/10/08 05:38:16;;;;;;;12.48;4.10;;;;;;;;;;5082338;28;20060;-60
2023/10/08 05:51:56;;;;;;;8.93;3.22;;;;;;;;;;5068012;28;20084;-61
2023/10/08 05:59:53;;;;;;;6.28;2.95;;;;;;;;;;5077582;28;20147;-61
2023/10/08 06:13:04;;;;;;;8.20;3.08;;;;;;;;;;5084852;28;20052;-61
2023/10/08 06:16:05;;;;;;;8.18;2.67;;;;;;;;;;5084483;28;20541;-61
2023/10/08 06:18:32;;;;;;;10.02;3.03;;;;;;;;;;5084547;28;20049;-61
2023/10/08 06:21:09;;;;;;;8.43;2.20;;;;;;;;;;5082288;28;20152;-61
2023/10/08 06:23:37;;;;;;;3.80;1.70;;;;;;;;;;5084831;28;20054;-61
2023/10/08 06:28:38;;;;;;;5.57;1.70;;;;;;;;;;5083290;28;20049;-61
2023/10/08 06:31:11;;;;;;;5.90;2.08;;;;;;;;;;5082601;28;20060;-61
2023/10/08 06:33:38;;;;;;;6.20;2.03;;;;;;;;;;5083036;28;20057;-60
2023/10/08 06:38:40;;;;;;;7.55;2.90;;;;;;;;;;5082886;28;20083;-61
2023/10/08 06:44:14;;;;;;;3.57;1.67;;;;;;;;;;5084611;28;20052;-61
2023/10/08 06:46:41;;;;;;;4.43;1.70;;;;;;;;;;5084451;28;20805;-61
2023/10/08 06:49:11;;;;;;;3.78;1.77;;;;;;;;;;5083132;28;20053;-60
2023/10/08 06:51:39;;;;;;;3.70;1.52;;;;;;;;;;5084071;28;20052;-61
2023/10/08 06:54:09;;;;;;;3.50;1.48;;;;;;;;;;5084020;28;20453;-60
2023/10/08 06:56:36;;;;;;;2.20;1.40;;;;;;;;;;5083697;28;20335;-61
2023/10/08 06:59:03;;;;;;;3.63;1.77;;;;;;;;;;5083970;28;20052;-60
2023/10/08 07:01:39;;;;;;;1.95;1.13;;;;;;;;;;5072458;28;20056;-61
2023/10/08 07:04:06;;;;;;;1.77;1.58;;;;;;;;;;5076642;28;20053;-61
2023/10/08 07:06:39;;;;;;;2.58;1.52;;;;;;;;;;5083330;28;20129;-61
2023/10/08 07:09:13;;;;;;;3.28;1.48;;;;;;;;;;5083904;28;20048;-61
2023/10/08 07:11:44;;;;;;;3.40;1.80;;;;;;;;;;5083292;28;20231;-61
2023/10/08 07:14:10;;;;;;;1.73;1.45;;;;;;;;;;5084001;28;20132;-59
2023/10/08 07:16:37;;;;;;;2.03;1.48;;;;;;;;;;5084250;28;20088;-61
2023/10/08 07:19:15;;;;;;;2.17;1.40;;;;;;;;;;5083345;28;20527;-62
2023/10/08 07:21:45;;;;;;;2.28;1.40;;;;;;;;;;5082246;28;20049;-61
2023/10/08 07:24:17;;;;;;;3.38;2.03;;;;;;;;;;5084077;28;20056;-61
2023/10/08 07:26:46;;;;;;;1.70;1.60;;;;;;;;;;5083301;28;20438;-61
2023/10/08 07:29:16;;;;;;;1.88;1.75;;;;;;;;;;5082882;28;20056;-61
2023/10/08 07:31:48;;;;;;;4.30;1.90;;;;;;;;;;5100579;28;20077;-61
2023/10/08 07:34:17;;;;;;;7.05;1.83;;;;;;;;;;5104068;27;20478;-60
2023/10/08 07:36:47;;;;;;;3.78;1.70;;;;;;;;;;5085962;27;20057;-61
2023/10/08 07:39:33;;;;;;;2.13;1.70;;;;;;;;;;5074502;28;20521;-61
2023/10/08 07:42:07;;;;;;;2.13;1.50;;;;;;;;;;5083173;28;20063;-60
2023/10/08 07:44:38;;;;;;;3.50;2.17;;;;;;;;;;5083324;28;20058;-61
2023/10/08 07:47:14;;;;;;;2.35;1.90;;;;;;;;;;5081704;28;20055;-60
2023/10/08 07:49:43;;;;;;;4.68;1.88;;;;;;;;;;5083397;28;20059;-61
2023/10/08 07:52:15;;;;;;;2.97;2.35;;;;;;;;;;5083195;28;20048;-61
2023/10/08 07:54:41;;;;;;;2.58;1.95;;;;;;;;;;5081873;28;20143;-61
2023/10/08 07:57:26;;;;;;;3.35;2.10;;;;;;;;;;5082884;28;20057;-60
2023/10/08 08:00:01;;;;;;;3.47;2.65;;;;;;;;;;5083482;28;20059;-61
2023/10/08 08:02:28;;;;;;;2.50;1.83;;;;;;;;;;5083041;28;20510;-61
2023/10/08 08:04:54;;;;;;;2.47;2.00;;;;;;;;;;5082110;28;20127;-61
2023/10/08 08:07:21;;;;;;;4.10;1.83;;;;;;;;;;5062903;28;20557;-62
2023/10/08 08:09:58;;;;;;;3.65;2.05;;;;;;;;;;5070846;28;20178;-61
2023/10/08 08:12:25;;;;;;;5.05;2.45;;;;;;;;;;5082092;28;20564;-61
2023/10/08 08:14:52;;;;;;;3.97;1.90;;;;;;;;;;5083283;28;20053;-61
2023/10/08 08:17:19;;;;;;;2.95;2.10;;;;;;;;;;5082174;28;20059;-60
2023/10/08 08:19:52;;;;;;;3.13;1.77;;;;;;;;;;5080491;28;20556;-61
2023/10/08 08:22:22;;;;;;;2.03;1.50;;;;;;;;;;5084664;28;20565;-61
2023/10/08 08:24:53;;;;;;;3.05;2.03;;;;;;;;;;5082594;28;20615;-61
2023/10/08 08:27:31;;;;;;;2.83;1.77;;;;;;;;;;5083181;28;20055;-60
2023/10/08 08:30:09;;;;;;;;;;;;;;;;;;5082649;28;20084;-61
2023/10/08 08:32:39;;;;;;;3.05;1.83;;;;;;;;;;5081651;28;45422;-61
2023/10/08 08:35:07;;;;;;;4.10;1.90;;;;;;;;;;5081478;28;20514;-61
2023/10/08 08:37:35;;;;;;;5.53;2.03;;;;;;;;;;5064611;28;20060;-61
2023/10/08 08:40:07;;;;;;;3.22;1.90;;;;;;;;;;5074105;28;20088;-61
2023/10/08 08:42:35;;;;;;;7.38;2.13;;;;;;;;;;5103101;27;20052;-61
2023/10/08 08:45:08;;;;;;;2.92;2.13;;;;;;;;;;5083719;27;20056;-61
2023/10/08 08:47:40;;;;;;;2.72;1.70;;;;;;;;;;5070722;28;20422;-61
2023/10/08 08:50:08;;;;;;;2.85;1.70;;;;;;;;;;5061921;28;20052;-62
2023/10/08 08:52:36;;;;;;;2.85;2.05;;;;;;;;;;5067369;28;20095;-61
2023/10/08 08:55:14;;;;;;;3.80;1.75;;;;;;;;;;5085900;28;20052;-61
2023/10/08 08:57:42;;;;;;;4.85;2.47;;;;;;;;;;5073780;28;20057;-61
2023/10/08 09:00:10;;;;;;;3.85;2.30;;;;;;;;;;5067865;28;20145;-59
2023/10/08 09:02:39;;;;;;;3.08;2.10;;;;;;;;;;5085622;28;20049;-62
2023/10/08 09:07:56;;;;;;;3.42;1.95;;;;;;;;;;5088108;28;20087;-61
2023/10/08 09:10:29;;;;;;;4.63;1.77;;;;;;;;;;5088283;28;20173;-61
2023/10/08 09:12:59;;;;;;;6.20;2.10;;;;;;;;;;5087587;28;20139;-61
2023/10/08 09:15:26;;;;;;;4.63;2.10;;;;;;;;;;5086083;28;20072;-61
2023/10/08 09:17:54;;;;;;;4.63;2.30;;;;;;;;;;5086448;28;20055;-61
2023/10/08 09:20:21;;;;;;;4.50;2.10;;;;;;;;;;5088177;28;20072;-61
2023/10/08 09:23:13;;;;;;;2.90;1.73;;;;;;;;;;5083131;28;20049;-61
2023/10/08 09:25:40;;;;;;;3.85;1.70;;;;;;;;;;5082228;28;20063;-61
2023/10/08 09:28:07;;;;;;;2.40;1.40;;;;;;;;;;5088197;28;20098;-60
2023/10/08 09:30:40;;;;;;;6.00;2.15;;;;;;;;;;5087091;28;20552;-60
2023/10/08 09:33:12;;;;;;;2.65;1.70;;;;;;;;;;5088125;28;20056;-61
2023/10/08 09:35:38;;;;;;;3.10;2.10;;;;;;;;;;5087309;28;20212;-60
2023/10/08 09:38:08;;;;;;;4.47;2.10;;;;;;;;;;5086169;28;20052;-61
2023/10/08 09:40:43;;;;;;;6.07;1.80;;;;;;;;;;5086268;27;20059;-61
2023/10/08 09:43:10;;;;;;;3.30;1.90;;;;;;;;;;5086033;28;20139;-61
2023/10/08 09:45:38;;;;;;;4.55;2.50;;;;;;;;;;5085200;28;20493;-60
2023/10/08 09:48:11;;;;;;;5.05;2.30;;;;;;;;;;5085251;28;20060;-61
2023/10/08 09:50:39;;;;;;;8.23;2.45;;;;;;;;;;5084703;28;20079;-60
2023/10/08 09:53:07;;;;;;;4.85;2.20;;;;;;;;;;5085482;28;20052;-61
2023/10/08 09:55:35;;;;;;;3.70;1.95;;;;;;;;;;5085148;28;20056;-61
2023/10/08 09:58:01;;;;;;;5.10;2.20;;;;;;;;;;5081101;28;20052;-61
2023/10/08 10:00:31;;;;;;;3.42;2.22;;;;;;;;;;5064724;28;20084;-61
2023/10/08 10:03:01;;;;;;;4.88;2.40;;;;;;;;;;5064778;28;20073;-60
2023/10/08 10:05:32;;;;;;;5.45;2.05;;;;;;;;;;5064774;28;20064;-60
2023/10/08 10:07:58;;;;;;;2.95;2.20;;;;;;;;;;5066007;28;20084;-60
2023/10/08 10:10:31;;;;;;;3.80;2.25;;;;;;;;;;5084931;28;20052;-60
2023/10/08 10:13:02;;;;;;;4.18;2.50;;;;;;;;;;5084934;28;20048;-61
2023/10/08 10:15:31;;;;;;;3.42;2.35;;;;;;;;;;5085048;28;20087;-61
2023/10/08 10:18:15;;;;;;;3.05;2.08;;;;;;;;;;5084796;28;20078;-61
2023/10/08 10:20:46;;;;;;;4.85;2.67;;;;;;;;;;5083410;28;20052;-60
2023/10/08 10:23:42;;;;;;;3.22;2.65;;;;;;;;;;5085019;28;20048;-60
2023/10/08 10:26:28;;;;;;;3.80;2.45;;;;;;;;;;5080755;28;20510;-60
2023/10/08 10:29:07;;;;;;;2.97;2.40;;;;;;;;;;5083798;28;20584;-61
2023/10/08 10:31:36;;;;;;;4.05;2.22;;;;;;;;;;5068248;28;20044;-61
2023/10/08 10:34:09;;;;;;;3.38;2.00;;;;;;;;;;5083118;28;20060;-61
2023/10/08 10:36:37;;;;;;;4.75;2.42;;;;;;;;;;5085085;28;20060;-61
2023/10/08 10:39:16;;;;;;;2.47;1.98;;;;;;;;;;5084506;28;20052;-61
2023/10/08 10:41:47;;;;;;;2.95;2.55;;;;;;;;;;5079778;28;20053;-61
2023/10/08 10:44:14;;;;;;;3.13;2.63;;;;;;;;;;5084219;28;20118;-61
2023/10/08 10:46:42;;;;;;;3.95;2.55;;;;;;;;;;5083966;28;20056;-60
2023/10/08 10:49:21;;;;;;;3.22;2.63;;;;;;;;;;5084458;28;20593;-61
2023/10/08 10:51:48;;;;;;;3.60;2.85;;;;;;;;;;5084553;28;20401;-61
2023/10/08 10:54:20;;;;;;;2.72;2.35;;;;;;;;;;5084107;28;20548;-61
2023/10/08 10:56:47;;;;;;;6.43;3.00;;;;;;;;;;5084133;28;20605;-61
2023/10/08 10:59:26;;;;;;;2.42;2.22;;;;;;;;;;5084403;28;20056;-61
2023/10/08 11:02:06;;;;;;;4.15;2.65;;;;;;;;;;5084384;28;20049;-61
2023/10/08 11:04:45;;;;;;;2.95;2.65;;;;;;;;;;5082810;28;20052;-61
2023/10/08 11:07:12;;;;;;;5.22;2.85;;;;;;;;;;5084264;28;20056;-61
2023/10/08 11:09:38;;;;;;;5.35;3.13;;;;;;;;;;5081440;28;20088;-60
2023/10/08 11:12:11;;;;;;;3.33;3.03;;;;;;;;;;5071489;28;20061;-60
2023/10/08 11:14:41;;;;;;;9.15;3.10;;;;;;;;;;5083316;28;20059;-61
2023/10/08 11:17:16;;;;;;;3.60;2.67;;;;;;;;;;5084024;28;20060;-61
2023/10/08 11:19:45;;;;;;;4.85;3.05;;;;;;;;;;5082634;28;20056;-61
2023/10/08 11:22:22;;;;;;;4.50;2.72;;;;;;;;;;5083549;28;20052;-61
2023/10/08 11:24:53;;;;;;;3.35;2.83;;;;;;;;;;5083316;28;20468;-61
2023/10/08 11:27:38;;;;;;;5.90;3.67;;;;;;;;;;5083800;28;20106;-61
2023/10/08 11:30:10;;;;;;;3.00;2.70;;;;;;;;;;5081136;28;20226;-61
2023/10/08 11:32:38;;;;;;;5.68;2.85;;;;;;;;;;5062997;28;20049;-61
2023/10/08 11:35:15;;;;;;;3.90;3.30;;;;;;;;;;5069866;28;20068;-62
2023/10/08 11:37:50;;;;;;;4.28;3.63;;;;;;;;;;5063188;28;20060;-62
2023/10/08 11:40:28;;;;;;;4.23;3.83;;;;;;;;;;5064620;28;20139;-61
2023/10/08 11:42:58;;;;;;;4.78;3.90;;;;;;;;;;5077054;28;20392;-61
2023/10/08 11:45:26;;;;;;;4.47;4.07;;;;;;;;;;5081268;28;20493;-61
2023/10/08 11:47:56;;;;;;;4.50;3.95;;;;;;;;;;5077279;28;20495;-61
2023/10/08 11:50:30;;;;;;;4.65;3.70;;;;;;;;;;5083318;28;20391;-61
2023/10/08 11:53:02;;;;;;;4.50;3.70;;;;;;;;;;5081992;28;20052;-60
2023/10/08 11:55:34;;;;;;;5.50;3.97;;;;;;;;;;5082180;28;20059;-60
2023/10/08 11:58:01;;;;;;;4.53;3.83;;;;;;;;;;5083236;28;20434;-59
2023/10/08 12:00:27;;;;;;;5.55;4.40;;;;;;;;;;5082711;28;20053;-61
2023/10/08 12:03:01;;;;;;;5.75;3.90;;;;;;;;;;5083289;28;20059;-61
2023/10/08 12:05:28;;;;;;;6.95;3.45;;;;;;;;;;5082186;28;20175;-60
2023/10/08 12:07:57;;;;;;;5.97;4.45;;;;;;;;;;5085655;28;20048;-61
2023/10/08 12:10:24;;;;;;;5.53;3.90;;;;;;;;;;5083162;28;20059;-61
2023/10/08 12:12:54;;;;;;;5.95;4.05;;;;;;;;;;5082050;28;20506;-60
2023/10/08 12:15:21;;;;;;;7.50;4.47;;;;;;;;;;5083200;28;20133;-60
2023/10/08 12:18:24;;;;;;;4.55;4.03;;;;;;;;;;5079278;28;20170;-61
2023/10/08 12:20:45;;;;;;;11.63;3.90;;;;;;;;;;5060986;28;20053;-61
2023/10/08 12:23:18;;;;;;;4.40;3.10;;;;;;;;;;5062364;28;20064;-61
2023/10/08 12:25:51;;;;;;;5.10;3.40;;;;;;;;;;5064303;28;20431;-61
2023/10/08 12:28:19;;;;;;;3.22;2.83;;;;;;;;;;5084294;28;20563;-61
2023/10/08 12:30:45;;;;;;;3.83;3.10;;;;;;;;;;5086388;28;20067;-61
2023/10/08 12:33:15;;;;;;;5.32;3.08;;;;;;;;;;5086203;28;20106;-60
2023/10/08 12:35:44;;;;;;;3.90;3.03;;;;;;;;;;5085184;28;20059;-60
2023/10/08 12:38:10;;;;;;;6.60;3.00;;;;;;;;;;5086263;28;20135;-60
2023/10/08 12:40:55;;;;;;;6.25;3.30;;;;;;;;;;5085551;28;20491;-59
2023/10/08 12:43:22;;;;;;;3.10;2.50;;;;;;;;;;5086276;28;20091;-61
2023/10/08 12:45:52;;;;;;;5.55;2.60;;;;;;;;;;5086539;28;20079;-58
2023/10/08 12:48:24;;;;;;;6.35;2.30;;;;;;;;;;5085868;28;20568;-61
2023/10/08 12:50:56;;;;;;;4.93;2.92;;;;;;;;;;5086100;28;20052;-61
2023/10/08 12:53:26;;;;;;;6.55;3.15;;;;;;;;;;5085467;28;20059;-61
2023/10/08 12:55:54;;;;;;;5.00;2.80;;;;;;;;;;5084898;28;20084;-61
2023/10/08 12:58:25;;;;;;;4.28;2.70;;;;;;;;;;5086429;28;20062;-60
2023/10/08 13:00:57;;;;;;;4.72;2.38;;;;;;;;;;5086044;28;20059;-60
2023/10/08 13:03:24;;;;;;;6.47;2.85;;;;;;;;;;5086172;28;20052;-61
2023/10/08 13:05:54;;;;;;;4.70;2.45;;;;;;;;;;5085346;28;20470;-61
2023/10/08 13:08:21;;;;;;;5.35;2.63;;;;;;;;;;5085678;28;20616;-61
2023/10/08 13:10:47;;;;;;;5.05;2.70;;;;;;;;;;5084158;28;20495;-61
2023/10/08 13:13:14;;;;;;;8.32;2.63;;;;;;;;;;5086712;28;20163;-60
2023/10/08 13:15:43;;;;;;;6.18;2.22;;;;;;;;;;5085181;28;20625;-61
2023/10/08 13:18:10;;;;;;;2.88;1.83;;;;;;;;;;5085887;28;20084;-61
2023/10/08 13:20:40;;;;;;;3.92;2.25;;;;;;;;;;5084647;28;20056;-60
2023/10/08 13:23:06;;;;;;;4.82;2.25;;;;;;;;;;5085388;28;20599;-60
2023/10/08 13:25:39;;;;;;;3.40;2.10;;;;;;;;;;5084155;28;20542;-60
2023/10/08 13:28:07;;;;;;;6.88;1.90;;;;;;;;;;5085663;28;20048;-61
2023/10/08 13:30:33;;;;;;;3.65;2.28;;;;;;;;;;5085257;28;20057;-60
2023/10/08 13:33:00;;;;;;;3.05;1.73;;;;;;;;;;5085718;27;20110;-61
2023/10/08 13:35:26;;;;;;;5.38;1.50;;;;;;;;;;5085254;28;20037;-60
2023/10/08 13:37:53;;;;;;;4.53;1.73;;;;;;;;;;5085526;28;20053;-60
2023/10/08 13:40:19;;;;;;;4.60;1.30;;;;;;;;;;5083800;28;20079;-60
2023/10/08 13:42:45;;;;;;;5.68;2.00;;;;;;;;;;5085404;28;20048;-60
2023/10/08 13:45:26;;;;;;;2.55;1.70;;;;;;;;;;5085670;28;20056;-61
2023/10/08 13:47:52;;;;;;;4.63;1.73;;;;;;;;;;5085454;28;20057;-61
2023/10/08 13:50:21;;;;;;;2.80;1.50;;;;;;;;;;5083805;28;20057;-59
2023/10/08 13:52:48;;;;;;;4.95;1.98;;;;;;;;;;5085149;28;20140;-61
2023/10/08 13:55:16;;;;;;;4.57;2.15;;;;;;;;;;5084644;28;20584;-60
2023/10/08 13:57:44;;;;;;;5.60;1.98;;;;;;;;;;5085575;28;20057;-61
2023/10/08 14:00:15;;;;;;;4.50;2.03;;;;;;;;;;5085160;28;20056;-60
2023/10/08 14:02:44;;;;;;;5.03;1.90;;;;;;;;;;5084025;28;20048;-61
2023/10/08 14:05:15;;;;;;;4.78;2.20;;;;;;;;;;5084464;28;20059;-61
2023/10/08 14:07:44;;;;;;;3.95;2.00;;;;;;;;;;5083505;28;20055;-58
2023/10/08 14:10:18;;;;;;;5.82;2.50;;;;;;;;;;5078510;28;20063;-60
2023/10/08 14:12:48;;;;;;;8.68;2.72;;;;;;;;;;5081262;28;20053;-61
2023/10/08 14:15:17;;;;;;;6.57;2.30;;;;;;;;;;5083884;28;20155;-61
2023/10/08 14:17:48;;;;;;;5.18;2.30;;;;;;;;;;5084702;28;20064;-60
2023/10/08 14:20:21;;;;;;;5.57;2.50;;;;;;;;;;5085424;28;20066;-60
2023/10/08 14:22:57;;;;;;;5.78;2.08;;;;;;;;;;5083653;28;20084;-59
2023/10/08 14:25:27;;;;;;;2.88;2.03;;;;;;;;;;5083708;28;20052;-60
2023/10/08 14:28:04;;;;;;;5.00;2.58;;;;;;;;;;5083550;28;20569;-60
2023/10/08 14:30:33;;;;;;;4.65;2.17;;;;;;;;;;5083401;28;20151;-60
2023/10/08 14:32:59;;;;;;;5.30;2.33;;;;;;;;;;5084558;28;20134;-60
2023/10/08 14:43:57;;;;;;;3.58;2.13;;;;;;;;;;5021205;28;20202;-60
2023/10/08 14:46:24;;;;;;;6.85;3.22;;;;;;;;;;5020254;28;20068;-60
2023/10/08 14:48:52;;;;;;;4.35;2.35;;;;;;;;;;5019587;28;20050;-60
2023/10/08 14:51:19;;;;;;;5.95;2.60;;;;;;;;;;5019584;28;20054;-63
2023/10/08 14:53:47;;;;;;;5.10;2.97;;;;;;;;;;5019687;28;20058;-61
2023/10/08 14:56:15;;;;;;;4.93;2.50;;;;;;;;;;4999329;28;20082;-61
2023/10/08 14:58:42;;;;;;;8.27;3.30;;;;;;;;;;5013348;28;20432;-61
2023/10/08 15:01:08;;;;;;;4.68;3.10;;;;;;;;;;5012156;28;20056;-63
2023/10/08 15:03:36;;;;;;;8.07;3.38;;;;;;;;;;5022824;28;20412;-62
2023/10/08 15:06:03;;;;;;;5.53;3.25;;;;;;;;;;5022705;28;20598;-62
2023/10/08 15:08:32;;;;;;;6.65;2.70;;;;;;;;;;5005143;28;20050;-62
2023/10/08 15:11:00;;;;;;;16.05;3.13;;;;;;;;;;5003466;28;20629;-61
2023/10/08 15:13:26;;;;;;;7.35;3.42;;;;;;;;;;5056810;28;20061;-61
2023/10/08 15:15:54;;;;;;;5.82;3.33;;;;;;;;;;5066902;28;20060;-62
2023/10/08 15:18:22;;;;;;;5.07;2.80;;;;;;;;;;5065330;28;20186;-61
2023/10/08 15:20:49;;;;;;;4.32;2.50;;;;;;;;;;5080947;28;20071;-60
2023/10/08 15:23:17;;;;;;;4.97;2.80;;;;;;;;;;5081581;28;20053;-61
2023/10/08 15:25:43;;;;;;;7.60;3.25;;;;;;;;;;5065785;28;20076;-61
2023/10/08 15:28:09;;;;;;;8.35;4.15;;;;;;;;;;5098466;28;20056;-62
2023/10/08 15:30:37;;;;;;;6.20;3.30;;;;;;;;;;5091094;27;20139;-61
2023/10/08 15:33:04;;;;;;;8.50;3.25;;;;;;;;;;5085708;28;20175;-60
2023/10/08 15:35:30;;;;;;;7.35;3.47;;;;;;;;;;5083960;28;20078;-62
2023/10/08 15:37:58;;;;;;;5.82;2.78;;;;;;;;;;5065532;28;20482;-61
2023/10/08 15:40:24;;;;;;;6.50;2.60;;;;;;;;;;5078902;28;20053;-61
2023/10/08 15:42:51;;;;;;;5.25;3.00;;;;;;;;;;5080002;28;20049;-61
2023/10/08 15:45:22;;;;;;;5.03;2.40;;;;;;;;;;5083073;28;20059;-61
2023/10/08 15:47:49;;;;;;;5.57;2.70;;;;;;;;;;5080849;28;20061;-60
2023/10/08 15:50:20;;;;;;;5.32;2.50;;;;;;;;;;5072633;28;20057;-60
2023/10/08 15:52:47;;;;;;;5.65;2.53;;;;;;;;;;5083746;28;20056;-61
2023/10/08 15:55:14;;;;;;;4.72;2.83;;;;;;;;;;5079220;28;20106;-60
2023/10/08 15:57:41;;;;;;;3.30;2.40;;;;;;;;;;5071352;28;20053;-60
2023/10/08 16:00:07;;;;;;;4.88;2.47;;;;;;;;;;5070790;28;20424;-60
2023/10/08 16:02:34;;;;;;;5.22;3.20;;;;;;;;;;5082883;28;20057;-61
2023/10/08 16:05:02;;;;;;;5.40;2.70;;;;;;;;;;5082241;28;20049;-60
2023/10/08 16:07:32;;;;;;;5.95;3.15;;;;;;;;;;5081116;28;20102;-61